sensor_id;sensor_type;location;lat;lon;timestamp;P1;durP1;ratioP1;P2;durP2;ratioP2
12725;SDS011;6427;49.754;6.106;2023-04-03T00:01:47;1.87;;;1.60;;
12725;SDS011;6427;49.754;6.106;2023-04-03T00:04:14;1.77;;;1.27;;
12725;SDS011;6427;49.754;6.106;2023-04-03T00:06:42;1.93;;;1.47;;
12725;SDS011;6427;49.754;6.106;2023-04-03T00:09:10;2.00;;;1.43;;
12725;SDS011;6427;49.754;6.106;2023-04-03T00:11:37;2.60;;;1.40;;
12725;SDS011;6427;49.754;6.106;2023-04-03T00:14:05;2.37;;;1.17;;
12725;SDS011;6427;49.754;6.106;2023-04-03T00:16:32;3.00;;;1.45;;
12725;SDS011;6427;49.754;6.106;2023-04-03T00:19:00;2.20;;;1.37;;
12725;SDS011;6427;49.754;6.106;2023-04-03T00:21:27;1.60;;;1.30;;
12725;SDS011;6427;49.754;6.106;2023-04-03T00:23:55;2.30;;;1.30;;
12725;SDS011;6427;49.754;6.106;2023-04-03T00:26:22;3.08;;;1.40;;
12725;SDS011;6427;49.754;6.106;2023-04-03T00:28:50;2.07;;;1.40;;
12725;SDS011;6427;49.754;6.106;2023-04-03T00:31:17;2.30;;;1.50;;
12725;SDS011;6427;49.754;6.106;2023-04-03T00:33:45;4.07;;;1.80;;
12725;SDS011;6427;49.754;6.106;2023-04-03T00:36:13;2.10;;;1.40;;
12725;SDS011;6427;49.754;6.106;2023-04-03T00:38:40;4.20;;;1.47;;
12725;SDS011;6427;49.754;6.106;2023-04-03T00:41:08;1.60;;;1.43;;
12725;SDS011;6427;49.754;6.106;2023-04-03T00:43:35;2.53;;;1.37;;
12725;SDS011;6427;49.754;6.106;2023-04-03T00:46:03;1.80;;;1.33;;
12725;SDS011;6427;49.754;6.106;2023-04-03T00:48:34;2.77;;;1.40;;
12725;SDS011;6427;49.754;6.106;2023-04-03T00:51:01;1.50;;;1.37;;
12725;SDS011;6427;49.754;6.106;2023-04-03T00:56:23;2.80;;;1.67;;
12725;SDS011;6427;49.754;6.106;2023-04-03T00:58:51;3.00;;;1.43;;
12725;SDS011;6427;49.754;6.106;2023-04-03T01:01:27;2.53;;;1.40;;
12725;SDS011;6427;49.754;6.106;2023-04-03T01:03:54;3.10;;;1.23;;
12725;SDS011;6427;49.754;6.106;2023-04-03T01:06:24;2.40;;;1.40;;
12725;SDS011;6427;49.754;6.106;2023-04-03T01:08:52;2.70;;;1.37;;
12725;SDS011;6427;49.754;6.106;2023-04-03T01:11:19;2.43;;;1.27;;
12725;SDS011;6427;49.754;6.106;2023-04-03T01:13:47;4.00;;;1.57;;
12725;SDS011;6427;49.754;6.106;2023-04-03T01:16:14;2.20;;;1.30;;
12725;SDS011;6427;49.754;6.106;2023-04-03T01:18:42;4.93;;;1.57;;
12725;SDS011;6427;49.754;6.106;2023-04-03T01:26:37;2.20;;;1.57;;
12725;SDS011;6427;49.754;6.106;2023-04-03T01:29:04;3.23;;;1.60;;
12725;SDS011;6427;49.754;6.106;2023-04-03T01:34:02;3.47;;;1.50;;
12725;SDS011;6427;49.754;6.106;2023-04-03T01:36:30;2.60;;;1.47;;
12725;SDS011;6427;49.754;6.106;2023-04-03T01:38:58;3.70;;;1.60;;
12725;SDS011;6427;49.754;6.106;2023-04-03T01:41:25;2.87;;;1.40;;
12725;SDS011;6427;49.754;6.106;2023-04-03T01:43:52;2.30;;;1.60;;
12725;SDS011;6427;49.754;6.106;2023-04-03T01:46:20;3.37;;;1.30;;
12725;SDS011;6427;49.754;6.106;2023-04-03T01:48:47;3.07;;;1.83;;
12725;SDS011;6427;49.754;6.106;2023-04-03T01:51:15;1.97;;;1.40;;
12725;SDS011;6427;49.754;6.106;2023-04-03T01:53:42;4.47;;;1.60;;
12725;SDS011;6427;49.754;6.106;2023-04-03T01:56:10;3.20;;;1.50;;
12725;SDS011;6427;49.754;6.106;2023-04-03T01:58:37;1.93;;;1.43;;
12725;SDS011;6427;49.754;6.106;2023-04-03T02:01:05;3.08;;;1.90;;
12725;SDS011;6427;49.754;6.106;2023-04-03T02:03:33;4.13;;;1.80;;
12725;SDS011;6427;49.754;6.106;2023-04-03T02:06:00;3.22;;;2.00;;
12725;SDS011;6427;49.754;6.106;2023-04-03T02:08:28;4.60;;;1.90;;
12725;SDS011;6427;49.754;6.106;2023-04-03T02:10:55;2.73;;;1.40;;
12725;SDS011;6427;49.754;6.106;2023-04-03T02:13:23;4.00;;;1.80;;
12725;SDS011;6427;49.754;6.106;2023-04-03T02:15:50;2.10;;;1.30;;
12725;SDS011;6427;49.754;6.106;2023-04-03T02:18:18;3.50;;;1.27;;
12725;SDS011;6427;49.754;6.106;2023-04-03T02:20:46;1.60;;;1.27;;
12725;SDS011;6427;49.754;6.106;2023-04-03T02:23:13;3.07;;;1.50;;
12725;SDS011;6427;49.754;6.106;2023-04-03T02:25:41;3.10;;;1.40;;
12725;SDS011;6427;49.754;6.106;2023-04-03T02:28:08;2.97;;;1.60;;
12725;SDS011;6427;49.754;6.106;2023-04-03T02:30:36;3.37;;;1.70;;
12725;SDS011;6427;49.754;6.106;2023-04-03T02:33:03;5.23;;;1.90;;
12725;SDS011;6427;49.754;6.106;2023-04-03T02:35:31;2.60;;;1.70;;
12725;SDS011;6427;49.754;6.106;2023-04-03T02:37:58;1.87;;;1.63;;
12725;SDS011;6427;49.754;6.106;2023-04-03T02:40:26;3.20;;;1.77;;
12725;SDS011;6427;49.754;6.106;2023-04-03T02:42:53;3.80;;;1.50;;
12725;SDS011;6427;49.754;6.106;2023-04-03T02:45:21;3.60;;;1.85;;
12725;SDS011;6427;49.754;6.106;2023-04-03T02:47:48;3.17;;;1.47;;
12725;SDS011;6427;49.754;6.106;2023-04-03T02:50:16;2.67;;;1.70;;
12725;SDS011;6427;49.754;6.106;2023-04-03T02:52:44;3.07;;;1.73;;
12725;SDS011;6427;49.754;6.106;2023-04-03T02:55:13;3.07;;;1.73;;
12725;SDS011;6427;49.754;6.106;2023-04-03T02:57:40;2.27;;;1.40;;
12725;SDS011;6427;49.754;6.106;2023-04-03T03:00:07;2.37;;;1.53;;
12725;SDS011;6427;49.754;6.106;2023-04-03T03:02:36;2.50;;;1.60;;
12725;SDS011;6427;49.754;6.106;2023-04-03T03:05:03;3.40;;;1.80;;
12725;SDS011;6427;49.754;6.106;2023-04-03T03:07:31;2.87;;;1.47;;
12725;SDS011;6427;49.754;6.106;2023-04-03T03:09:58;4.90;;;1.77;;
12725;SDS011;6427;49.754;6.106;2023-04-03T03:12:26;2.43;;;1.70;;
12725;SDS011;6427;49.754;6.106;2023-04-03T03:14:53;2.90;;;1.73;;
12725;SDS011;6427;49.754;6.106;2023-04-03T03:17:21;2.23;;;1.37;;
12725;SDS011;6427;49.754;6.106;2023-04-03T03:19:49;2.77;;;1.53;;
12725;SDS011;6427;49.754;6.106;2023-04-03T03:22:16;2.17;;;1.70;;
12725;SDS011;6427;49.754;6.106;2023-04-03T03:24:44;3.27;;;1.67;;
12725;SDS011;6427;49.754;6.106;2023-04-03T03:27:12;2.33;;;1.70;;
12725;SDS011;6427;49.754;6.106;2023-04-03T03:29:39;3.73;;;1.90;;
12725;SDS011;6427;49.754;6.106;2023-04-03T03:32:07;3.60;;;1.63;;
12725;SDS011;6427;49.754;6.106;2023-04-03T03:34:34;1.87;;;1.43;;
12725;SDS011;6427;49.754;6.106;2023-04-03T03:37:02;3.00;;;1.63;;
12725;SDS011;6427;49.754;6.106;2023-04-03T03:39:29;2.00;;;1.57;;
12725;SDS011;6427;49.754;6.106;2023-04-03T03:41:57;4.13;;;1.77;;
12725;SDS011;6427;49.754;6.106;2023-04-03T03:44:24;3.35;;;2.00;;
12725;SDS011;6427;49.754;6.106;2023-04-03T03:46:52;2.13;;;1.50;;
12725;SDS011;6427;49.754;6.106;2023-04-03T03:49:19;3.90;;;2.20;;
12725;SDS011;6427;49.754;6.106;2023-04-03T03:51:47;2.40;;;1.50;;
12725;SDS011;6427;49.754;6.106;2023-04-03T03:54:15;2.70;;;1.63;;
12725;SDS011;6427;49.754;6.106;2023-04-03T03:56:42;4.03;;;1.50;;
12725;SDS011;6427;49.754;6.106;2023-04-03T03:59:11;2.67;;;1.80;;
12725;SDS011;6427;49.754;6.106;2023-04-03T04:01:37;2.57;;;1.50;;
12725;SDS011;6427;49.754;6.106;2023-04-03T04:04:05;4.50;;;1.73;;
12725;SDS011;6427;49.754;6.106;2023-04-03T04:06:32;2.23;;;1.63;;
12725;SDS011;6427;49.754;6.106;2023-04-03T04:09:00;2.37;;;1.50;;
12725;SDS011;6427;49.754;6.106;2023-04-03T04:11:27;3.40;;;1.40;;
12725;SDS011;6427;49.754;6.106;2023-04-03T04:13:55;3.00;;;1.95;;
12725;SDS011;6427;49.754;6.106;2023-04-03T04:16:23;1.77;;;1.30;;
12725;SDS011;6427;49.754;6.106;2023-04-03T04:18:51;3.10;;;1.60;;
12725;SDS011;6427;49.754;6.106;2023-04-03T04:21:18;8.27;;;2.10;;
12725;SDS011;6427;49.754;6.106;2023-04-03T04:23:46;3.83;;;1.77;;
12725;SDS011;6427;49.754;6.106;2023-04-03T04:26:13;2.60;;;1.40;;
12725;SDS011;6427;49.754;6.106;2023-04-03T04:28:41;6.60;;;1.90;;
12725;SDS011;6427;49.754;6.106;2023-04-03T04:31:08;2.90;;;1.50;;
12725;SDS011;6427;49.754;6.106;2023-04-03T04:33:36;3.50;;;1.67;;
12725;SDS011;6427;49.754;6.106;2023-04-03T04:36:03;5.73;;;1.60;;
12725;SDS011;6427;49.754;6.106;2023-04-03T04:38:31;2.80;;;1.37;;
12725;SDS011;6427;49.754;6.106;2023-04-03T04:40:59;5.93;;;1.83;;
12725;SDS011;6427;49.754;6.106;2023-04-03T04:43:26;3.10;;;1.40;;
12725;SDS011;6427;49.754;6.106;2023-04-03T04:46:04;5.20;;;1.93;;
12725;SDS011;6427;49.754;6.106;2023-04-03T04:48:27;2.50;;;1.57;;
12725;SDS011;6427;49.754;6.106;2023-04-03T04:50:54;4.03;;;2.00;;
12725;SDS011;6427;49.754;6.106;2023-04-03T04:53:22;5.80;;;1.87;;
12725;SDS011;6427;49.754;6.106;2023-04-03T04:55:50;2.60;;;1.70;;
12725;SDS011;6427;49.754;6.106;2023-04-03T04:58:17;3.20;;;1.27;;
12725;SDS011;6427;49.754;6.106;2023-04-03T05:00:45;2.57;;;1.50;;
12725;SDS011;6427;49.754;6.106;2023-04-03T05:03:13;4.23;;;1.57;;
12725;SDS011;6427;49.754;6.106;2023-04-03T05:05:40;5.57;;;1.50;;
12725;SDS011;6427;49.754;6.106;2023-04-03T05:08:08;3.60;;;2.00;;
12725;SDS011;6427;49.754;6.106;2023-04-03T05:10:35;5.35;;;1.90;;
12725;SDS011;6427;49.754;6.106;2023-04-03T05:13:03;4.67;;;1.67;;
12725;SDS011;6427;49.754;6.106;2023-04-03T05:15:30;4.20;;;1.50;;
12725;SDS011;6427;49.754;6.106;2023-04-03T05:17:58;3.13;;;1.87;;
12725;SDS011;6427;49.754;6.106;2023-04-03T05:20:25;2.57;;;1.70;;
12725;SDS011;6427;49.754;6.106;2023-04-03T05:22:53;5.93;;;3.70;;
12725;SDS011;6427;49.754;6.106;2023-04-03T05:25:20;6.47;;;3.80;;
12725;SDS011;6427;49.754;6.106;2023-04-03T05:27:48;4.00;;;3.63;;
12725;SDS011;6427;49.754;6.106;2023-04-03T05:30:16;8.23;;;5.37;;
12725;SDS011;6427;49.754;6.106;2023-04-03T05:32:43;5.47;;;3.17;;
12725;SDS011;6427;49.754;6.106;2023-04-03T05:35:11;4.18;;;2.53;;
12725;SDS011;6427;49.754;6.106;2023-04-03T05:37:38;4.33;;;1.60;;
12725;SDS011;6427;49.754;6.106;2023-04-03T05:40:06;4.17;;;2.20;;
12725;SDS011;6427;49.754;6.106;2023-04-03T05:42:33;1.97;;;1.70;;
12725;SDS011;6427;49.754;6.106;2023-04-03T05:45:01;3.93;;;1.73;;
12725;SDS011;6427;49.754;6.106;2023-04-03T05:47:28;5.10;;;1.63;;
12725;SDS011;6427;49.754;6.106;2023-04-03T05:49:56;4.47;;;1.93;;
12725;SDS011;6427;49.754;6.106;2023-04-03T05:52:28;2.23;;;1.60;;
12725;SDS011;6427;49.754;6.106;2023-04-03T05:54:54;2.28;;;1.80;;
12725;SDS011;6427;49.754;6.106;2023-04-03T05:57:21;3.23;;;1.67;;
12725;SDS011;6427;49.754;6.106;2023-04-03T05:59:49;3.93;;;1.70;;
12725;SDS011;6427;49.754;6.106;2023-04-03T06:02:20;3.63;;;1.70;;
12725;SDS011;6427;49.754;6.106;2023-04-03T06:04:47;5.07;;;1.90;;
12725;SDS011;6427;49.754;6.106;2023-04-03T06:07:15;3.42;;;2.17;;
12725;SDS011;6427;49.754;6.106;2023-04-03T06:09:42;3.70;;;1.90;;
12725;SDS011;6427;49.754;6.106;2023-04-03T06:12:10;5.70;;;1.50;;
12725;SDS011;6427;49.754;6.106;2023-04-03T06:14:37;9.37;;;1.70;;
12725;SDS011;6427;49.754;6.106;2023-04-03T06:17:05;3.42;;;2.25;;
12725;SDS011;6427;49.754;6.106;2023-04-03T06:19:32;4.82;;;2.30;;
12725;SDS011;6427;49.754;6.106;2023-04-03T06:22:00;2.90;;;1.73;;
12725;SDS011;6427;49.754;6.106;2023-04-03T06:24:27;7.27;;;1.93;;
12725;SDS011;6427;49.754;6.106;2023-04-03T06:26:55;3.60;;;1.67;;
12725;SDS011;6427;49.754;6.106;2023-04-03T06:29:22;5.53;;;1.87;;
12725;SDS011;6427;49.754;6.106;2023-04-03T06:31:50;4.17;;;1.40;;
12725;SDS011;6427;49.754;6.106;2023-04-03T06:34:17;4.05;;;1.87;;
12725;SDS011;6427;49.754;6.106;2023-04-03T06:36:45;5.17;;;1.40;;
12725;SDS011;6427;49.754;6.106;2023-04-03T06:39:13;6.03;;;1.63;;
12725;SDS011;6427;49.754;6.106;2023-04-03T06:41:40;2.53;;;1.50;;
12725;SDS011;6427;49.754;6.106;2023-04-03T06:44:08;2.80;;;1.33;;
12725;SDS011;6427;49.754;6.106;2023-04-03T06:46:35;3.33;;;1.10;;
12725;SDS011;6427;49.754;6.106;2023-04-03T06:49:03;4.60;;;1.77;;
12725;SDS011;6427;49.754;6.106;2023-04-03T06:51:30;3.97;;;1.60;;
12725;SDS011;6427;49.754;6.106;2023-04-03T06:53:58;4.83;;;1.33;;
12725;SDS011;6427;49.754;6.106;2023-04-03T06:56:26;2.13;;;1.17;;
12725;SDS011;6427;49.754;6.106;2023-04-03T06:58:53;3.63;;;1.30;;
12725;SDS011;6427;49.754;6.106;2023-04-03T07:01:24;2.77;;;1.40;;
12725;SDS011;6427;49.754;6.106;2023-04-03T07:03:51;2.80;;;1.40;;
12725;SDS011;6427;49.754;6.106;2023-04-03T07:06:18;3.10;;;1.40;;
12725;SDS011;6427;49.754;6.106;2023-04-03T07:08:46;4.93;;;1.33;;
12725;SDS011;6427;49.754;6.106;2023-04-03T07:11:13;3.07;;;1.47;;
12725;SDS011;6427;49.754;6.106;2023-04-03T07:13:41;5.53;;;1.30;;
12725;SDS011;6427;49.754;6.106;2023-04-03T07:16:09;3.77;;;1.40;;
12725;SDS011;6427;49.754;6.106;2023-04-03T07:18:36;4.22;;;1.58;;
12725;SDS011;6427;49.754;6.106;2023-04-03T07:21:03;4.13;;;1.60;;
12725;SDS011;6427;49.754;6.106;2023-04-03T07:23:31;2.30;;;1.30;;
12725;SDS011;6427;49.754;6.106;2023-04-03T07:25:59;4.53;;;1.53;;
12725;SDS011;6427;49.754;6.106;2023-04-03T07:28:26;2.57;;;1.17;;
12725;SDS011;6427;49.754;6.106;2023-04-03T07:30:59;3.55;;;1.52;;
12725;SDS011;6427;49.754;6.106;2023-04-03T07:33:22;4.18;;;1.50;;
12725;SDS011;6427;49.754;6.106;2023-04-03T07:35:49;4.53;;;1.67;;
12725;SDS011;6427;49.754;6.106;2023-04-03T07:38:16;1.20;;;1.10;;
12725;SDS011;6427;49.754;6.106;2023-04-03T07:40:47;5.10;;;1.33;;
12725;SDS011;6427;49.754;6.106;2023-04-03T07:43:15;1.90;;;1.27;;
12725;SDS011;6427;49.754;6.106;2023-04-03T07:45:42;2.37;;;1.30;;
12725;SDS011;6427;49.754;6.106;2023-04-03T07:48:10;3.67;;;1.23;;
12725;SDS011;6427;49.754;6.106;2023-04-03T07:50:39;2.58;;;1.50;;
12725;SDS011;6427;49.754;6.106;2023-04-03T07:53:05;3.33;;;1.40;;
12725;SDS011;6427;49.754;6.106;2023-04-03T07:55:32;3.87;;;1.50;;
12725;SDS011;6427;49.754;6.106;2023-04-03T07:58:00;2.37;;;1.13;;
12725;SDS011;6427;49.754;6.106;2023-04-03T08:00:27;1.50;;;1.20;;
12725;SDS011;6427;49.754;6.106;2023-04-03T08:02:55;2.77;;;1.17;;
12725;SDS011;6427;49.754;6.106;2023-04-03T08:05:22;3.03;;;1.30;;
12725;SDS011;6427;49.754;6.106;2023-04-03T08:07:50;5.07;;;1.33;;
12725;SDS011;6427;49.754;6.106;2023-04-03T08:10:17;2.40;;;1.20;;
12725;SDS011;6427;49.754;6.106;2023-04-03T08:12:45;4.00;;;1.60;;
12725;SDS011;6427;49.754;6.106;2023-04-03T08:15:13;3.10;;;1.40;;
12725;SDS011;6427;49.754;6.106;2023-04-03T08:17:40;3.20;;;1.40;;
12725;SDS011;6427;49.754;6.106;2023-04-03T08:20:09;2.20;;;1.23;;
12725;SDS011;6427;49.754;6.106;2023-04-03T08:22:36;3.73;;;1.53;;
12725;SDS011;6427;49.754;6.106;2023-04-03T08:25:03;1.50;;;1.10;;
12725;SDS011;6427;49.754;6.106;2023-04-03T08:27:31;3.43;;;1.20;;
12725;SDS011;6427;49.754;6.106;2023-04-03T08:30:02;3.10;;;1.37;;
12725;SDS011;6427;49.754;6.106;2023-04-03T08:32:29;2.27;;;1.20;;
12725;SDS011;6427;49.754;6.106;2023-04-03T08:34:56;3.33;;;1.20;;
12725;SDS011;6427;49.754;6.106;2023-04-03T08:37:24;4.47;;;1.70;;
12725;SDS011;6427;49.754;6.106;2023-04-03T08:39:52;4.90;;;1.30;;
12725;SDS011;6427;49.754;6.106;2023-04-03T08:45:12;2.97;;;1.30;;
12725;SDS011;6427;49.754;6.106;2023-04-03T08:47:38;3.37;;;1.20;;
12725;SDS011;6427;49.754;6.106;2023-04-03T08:50:12;3.37;;;1.23;;
12725;SDS011;6427;49.754;6.106;2023-04-03T08:52:40;3.37;;;1.73;;
12725;SDS011;6427;49.754;6.106;2023-04-03T08:55:07;1.70;;;1.00;;
12725;SDS011;6427;49.754;6.106;2023-04-03T08:57:41;2.80;;;1.37;;
12725;SDS011;6427;49.754;6.106;2023-04-03T09:02:42;4.75;;;1.77;;
12725;SDS011;6427;49.754;6.106;2023-04-03T09:05:19;2.80;;;1.30;;
12725;SDS011;6427;49.754;6.106;2023-04-03T09:07:46;4.03;;;1.73;;
12725;SDS011;6427;49.754;6.106;2023-04-03T09:10:10;4.03;;;1.67;;
12725;SDS011;6427;49.754;6.106;2023-04-03T09:12:38;3.83;;;1.20;;
12725;SDS011;6427;49.754;6.106;2023-04-03T09:15:23;2.80;;;1.17;;
12725;SDS011;6427;49.754;6.106;2023-04-03T09:17:57;5.33;;;1.37;;
12725;SDS011;6427;49.754;6.106;2023-04-03T09:20:30;2.83;;;1.27;;
12725;SDS011;6427;49.754;6.106;2023-04-03T09:22:54;3.00;;;1.20;;
12725;SDS011;6427;49.754;6.106;2023-04-03T09:25:23;4.63;;;1.60;;
12725;SDS011;6427;49.754;6.106;2023-04-03T09:27:52;4.83;;;1.60;;
12725;SDS011;6427;49.754;6.106;2023-04-03T09:30:20;4.95;;;1.87;;
12725;SDS011;6427;49.754;6.106;2023-04-03T09:32:50;4.07;;;1.80;;
12725;SDS011;6427;49.754;6.106;2023-04-03T09:35:31;3.40;;;1.50;;
12725;SDS011;6427;49.754;6.106;2023-04-03T09:38:01;1.83;;;1.30;;
12725;SDS011;6427;49.754;6.106;2023-04-03T09:42:59;3.78;;;1.85;;
12725;SDS011;6427;49.754;6.106;2023-04-03T09:45:27;3.13;;;2.00;;
12725;SDS011;6427;49.754;6.106;2023-04-03T09:48:07;7.13;;;1.93;;
12725;SDS011;6427;49.754;6.106;2023-04-03T09:53:28;3.30;;;1.50;;
12725;SDS011;6427;49.754;6.106;2023-04-03T09:55:57;7.03;;;1.53;;
12725;SDS011;6427;49.754;6.106;2023-04-03T09:58:30;3.13;;;1.50;;
12725;SDS011;6427;49.754;6.106;2023-04-03T10:00:58;2.10;;;1.30;;
12725;SDS011;6427;49.754;6.106;2023-04-03T10:03:27;4.00;;;1.57;;
12725;SDS011;6427;49.754;6.106;2023-04-03T10:05:58;2.40;;;1.43;;
12725;SDS011;6427;49.754;6.106;2023-04-03T10:11:12;3.70;;;1.90;;
12725;SDS011;6427;49.754;6.106;2023-04-03T10:13:36;2.10;;;1.40;;
12725;SDS011;6427;49.754;6.106;2023-04-03T10:16:06;3.90;;;1.73;;
12725;SDS011;6427;49.754;6.106;2023-04-03T10:18:44;4.47;;;1.60;;
12725;SDS011;6427;49.754;6.106;2023-04-03T10:21:15;2.67;;;1.47;;
12725;SDS011;6427;49.754;6.106;2023-04-03T10:29:25;2.30;;;1.70;;
12725;SDS011;6427;49.754;6.106;2023-04-03T10:34:31;4.23;;;1.47;;
12725;SDS011;6427;49.754;6.106;2023-04-03T10:39:59;1.87;;;1.30;;
12725;SDS011;6427;49.754;6.106;2023-04-03T10:47:52;7.23;;;1.40;;
12725;SDS011;6427;49.754;6.106;2023-04-03T10:50:39;2.90;;;1.83;;
12725;SDS011;6427;49.754;6.106;2023-04-03T10:56:03;3.97;;;1.57;;
12725;SDS011;6427;49.754;6.106;2023-04-03T10:58:48;5.13;;;1.70;;
12725;SDS011;6427;49.754;6.106;2023-04-03T11:01:16;2.27;;;1.40;;
12725;SDS011;6427;49.754;6.106;2023-04-03T11:03:47;3.33;;;1.53;;
12725;SDS011;6427;49.754;6.106;2023-04-03T11:06:12;2.77;;;1.93;;
12725;SDS011;6427;49.754;6.106;2023-04-03T11:11:11;6.23;;;1.60;;
12725;SDS011;6427;49.754;6.106;2023-04-03T11:13:44;3.20;;;1.55;;
12725;SDS011;6427;49.754;6.106;2023-04-03T11:16:12;2.53;;;1.50;;
12725;SDS011;6427;49.754;6.106;2023-04-03T11:18:39;2.13;;;1.37;;
12725;SDS011;6427;49.754;6.106;2023-04-03T11:21:28;1.73;;;1.40;;
12725;SDS011;6427;49.754;6.106;2023-04-03T11:23:51;2.60;;;1.47;;
12725;SDS011;6427;49.754;6.106;2023-04-03T11:26:20;6.00;;;1.30;;
12725;SDS011;6427;49.754;6.106;2023-04-03T11:28:46;2.60;;;1.20;;
12725;SDS011;6427;49.754;6.106;2023-04-03T11:34:19;2.67;;;1.47;;
12725;SDS011;6427;49.754;6.106;2023-04-03T11:36:53;3.40;;;1.50;;
12725;SDS011;6427;49.754;6.106;2023-04-03T11:42:14;1.53;;;1.13;;
12725;SDS011;6427;49.754;6.106;2023-04-03T11:44:46;3.97;;;2.20;;
12725;SDS011;6427;49.754;6.106;2023-04-03T11:47:43;3.23;;;1.20;;
12725;SDS011;6427;49.754;6.106;2023-04-03T11:49:55;2.63;;;1.30;;
12725;SDS011;6427;49.754;6.106;2023-04-03T11:53:10;2.30;;;1.20;;
12725;SDS011;6427;49.754;6.106;2023-04-03T12:13:40;3.97;;;1.40;;
12725;SDS011;6427;49.754;6.106;2023-04-03T12:16:20;2.40;;;1.20;;
12725;SDS011;6427;49.754;6.106;2023-04-03T12:21:24;3.43;;;1.07;;
12725;SDS011;6427;49.754;6.106;2023-04-03T12:26:38;2.70;;;1.07;;
12725;SDS011;6427;49.754;6.106;2023-04-03T12:40:25;1.87;;;1.17;;
12725;SDS011;6427;49.754;6.106;2023-04-03T12:46:09;2.13;;;1.00;;
12725;SDS011;6427;49.754;6.106;2023-04-03T12:48:39;3.00;;;1.10;;
12725;SDS011;6427;49.754;6.106;2023-04-03T12:51:05;2.20;;;1.00;;
12725;SDS011;6427;49.754;6.106;2023-04-03T12:53:34;2.33;;;1.07;;
12725;SDS011;6427;49.754;6.106;2023-04-03T12:58:47;3.60;;;1.10;;
12725;SDS011;6427;49.754;6.106;2023-04-03T13:01:16;2.65;;;1.40;;
12725;SDS011;6427;49.754;6.106;2023-04-03T13:03:43;1.87;;;1.20;;
12725;SDS011;6427;49.754;6.106;2023-04-03T13:06:23;2.57;;;0.97;;
12725;SDS011;6427;49.754;6.106;2023-04-03T13:08:54;1.43;;;1.10;;
12725;SDS011;6427;49.754;6.106;2023-04-03T13:11:22;5.37;;;1.37;;
12725;SDS011;6427;49.754;6.106;2023-04-03T13:13:56;2.27;;;1.17;;
12725;SDS011;6427;49.754;6.106;2023-04-03T13:16:23;1.80;;;1.00;;
12725;SDS011;6427;49.754;6.106;2023-04-03T13:18:51;1.37;;;1.10;;
12725;SDS011;6427;49.754;6.106;2023-04-03T13:21:19;2.83;;;1.27;;
12725;SDS011;6427;49.754;6.106;2023-04-03T13:23:46;6.40;;;1.33;;
12725;SDS011;6427;49.754;6.106;2023-04-03T13:26:15;3.23;;;1.27;;
12725;SDS011;6427;49.754;6.106;2023-04-03T13:28:41;2.10;;;1.10;;
12725;SDS011;6427;49.754;6.106;2023-04-03T13:31:15;2.77;;;1.00;;
12725;SDS011;6427;49.754;6.106;2023-04-03T13:33:39;2.30;;;1.13;;
12725;SDS011;6427;49.754;6.106;2023-04-03T13:36:07;4.33;;;0.80;;
12725;SDS011;6427;49.754;6.106;2023-04-03T13:38:36;2.78;;;1.20;;
12725;SDS011;6427;49.754;6.106;2023-04-03T13:41:20;1.97;;;1.00;;
12725;SDS011;6427;49.754;6.106;2023-04-03T13:43:33;3.90;;;1.03;;
12725;SDS011;6427;49.754;6.106;2023-04-03T13:46:04;5.27;;;1.10;;
12725;SDS011;6427;49.754;6.106;2023-04-03T13:48:42;4.67;;;1.17;;
12725;SDS011;6427;49.754;6.106;2023-04-03T13:53:43;1.77;;;1.10;;
12725;SDS011;6427;49.754;6.106;2023-04-03T13:56:15;7.15;;;1.30;;
12725;SDS011;6427;49.754;6.106;2023-04-03T13:58:37;4.60;;;0.90;;
12725;SDS011;6427;49.754;6.106;2023-04-03T14:01:11;3.27;;;1.10;;
12725;SDS011;6427;49.754;6.106;2023-04-03T14:03:42;4.20;;;1.20;;
12725;SDS011;6427;49.754;6.106;2023-04-03T14:06:05;1.63;;;0.90;;
12725;SDS011;6427;49.754;6.106;2023-04-03T14:08:32;2.70;;;0.97;;
12725;SDS011;6427;49.754;6.106;2023-04-03T14:11:00;2.67;;;1.67;;
12725;SDS011;6427;49.754;6.106;2023-04-03T14:13:31;3.10;;;1.30;;
12725;SDS011;6427;49.754;6.106;2023-04-03T14:15:58;3.90;;;1.20;;
12725;SDS011;6427;49.754;6.106;2023-04-03T14:18:25;2.77;;;0.97;;
12725;SDS011;6427;49.754;6.106;2023-04-03T14:20:53;1.50;;;0.80;;
12725;SDS011;6427;49.754;6.106;2023-04-03T14:23:20;2.50;;;0.80;;
12725;SDS011;6427;49.754;6.106;2023-04-03T14:25:48;3.83;;;1.23;;
12725;SDS011;6427;49.754;6.106;2023-04-03T14:28:20;3.20;;;1.20;;
12725;SDS011;6427;49.754;6.106;2023-04-03T14:30:47;3.60;;;1.10;;
12725;SDS011;6427;49.754;6.106;2023-04-03T14:33:15;2.47;;;1.00;;
12725;SDS011;6427;49.754;6.106;2023-04-03T14:35:41;2.95;;;1.20;;
12725;SDS011;6427;49.754;6.106;2023-04-03T14:38:43;2.00;;;1.00;;
12725;SDS011;6427;49.754;6.106;2023-04-03T14:40:42;2.53;;;1.10;;
12725;SDS011;6427;49.754;6.106;2023-04-03T14:43:10;2.40;;;0.80;;
12725;SDS011;6427;49.754;6.106;2023-04-03T14:45:37;3.03;;;0.90;;
12725;SDS011;6427;49.754;6.106;2023-04-03T14:48:06;3.13;;;0.90;;
12725;SDS011;6427;49.754;6.106;2023-04-03T14:50:32;3.00;;;0.93;;
12725;SDS011;6427;49.754;6.106;2023-04-03T14:53:00;2.63;;;1.13;;
12725;SDS011;6427;49.754;6.106;2023-04-03T14:55:27;3.10;;;1.12;;
12725;SDS011;6427;49.754;6.106;2023-04-03T14:57:55;5.40;;;1.23;;
12725;SDS011;6427;49.754;6.106;2023-04-03T15:00:22;3.13;;;0.90;;
12725;SDS011;6427;49.754;6.106;2023-04-03T15:02:50;2.00;;;0.90;;
12725;SDS011;6427;49.754;6.106;2023-04-03T15:05:18;2.40;;;1.33;;
12725;SDS011;6427;49.754;6.106;2023-04-03T15:07:53;2.53;;;1.00;;
12725;SDS011;6427;49.754;6.106;2023-04-03T15:10:18;2.23;;;0.90;;
12725;SDS011;6427;49.754;6.106;2023-04-03T15:12:46;2.55;;;1.20;;
12725;SDS011;6427;49.754;6.106;2023-04-03T15:15:14;3.57;;;1.07;;
12725;SDS011;6427;49.754;6.106;2023-04-03T15:17:41;3.83;;;1.30;;
12725;SDS011;6427;49.754;6.106;2023-04-03T15:20:15;2.70;;;0.80;;
12725;SDS011;6427;49.754;6.106;2023-04-03T15:22:42;2.97;;;1.10;;
12725;SDS011;6427;49.754;6.106;2023-04-03T15:25:09;2.57;;;0.93;;
12725;SDS011;6427;49.754;6.106;2023-04-03T15:27:37;2.13;;;0.90;;
12725;SDS011;6427;49.754;6.106;2023-04-03T15:30:05;3.67;;;1.00;;
12725;SDS011;6427;49.754;6.106;2023-04-03T15:32:32;2.37;;;1.10;;
12725;SDS011;6427;49.754;6.106;2023-04-03T15:35:00;2.20;;;0.90;;
12725;SDS011;6427;49.754;6.106;2023-04-03T15:37:27;1.60;;;1.00;;
12725;SDS011;6427;49.754;6.106;2023-04-03T15:39:55;4.53;;;0.87;;
12725;SDS011;6427;49.754;6.106;2023-04-03T15:42:22;3.50;;;0.90;;
12725;SDS011;6427;49.754;6.106;2023-04-03T15:44:50;1.80;;;0.80;;
12725;SDS011;6427;49.754;6.106;2023-04-03T15:47:17;3.07;;;1.10;;
12725;SDS011;6427;49.754;6.106;2023-04-03T15:49:45;1.97;;;1.00;;
12725;SDS011;6427;49.754;6.106;2023-04-03T15:52:12;3.60;;;1.23;;
12725;SDS011;6427;49.754;6.106;2023-04-03T15:54:40;3.83;;;1.00;;
12725;SDS011;6427;49.754;6.106;2023-04-03T15:57:08;2.63;;;0.90;;
12725;SDS011;6427;49.754;6.106;2023-04-03T15:59:35;2.65;;;1.02;;
12725;SDS011;6427;49.754;6.106;2023-04-03T16:02:03;4.07;;;1.07;;
12725;SDS011;6427;49.754;6.106;2023-04-03T16:04:30;1.83;;;0.87;;
12725;SDS011;6427;49.754;6.106;2023-04-03T16:07:00;3.20;;;1.00;;
12725;SDS011;6427;49.754;6.106;2023-04-03T16:09:25;2.50;;;0.80;;
12725;SDS011;6427;49.754;6.106;2023-04-03T16:11:53;4.77;;;0.87;;
12725;SDS011;6427;49.754;6.106;2023-04-03T16:14:20;3.80;;;0.90;;
12725;SDS011;6427;49.754;6.106;2023-04-03T16:16:48;4.18;;;1.27;;
12725;SDS011;6427;49.754;6.106;2023-04-03T16:19:15;5.67;;;1.40;;
12725;SDS011;6427;49.754;6.106;2023-04-03T16:21:43;1.27;;;1.00;;
12725;SDS011;6427;49.754;6.106;2023-04-03T16:24:11;1.43;;;0.83;;
12725;SDS011;6427;49.754;6.106;2023-04-03T16:26:38;1.87;;;0.90;;
12725;SDS011;6427;49.754;6.106;2023-04-03T16:29:06;6.17;;;1.10;;
12725;SDS011;6427;49.754;6.106;2023-04-03T16:31:33;4.67;;;0.97;;
12725;SDS011;6427;49.754;6.106;2023-04-03T16:34:01;1.63;;;0.60;;
12725;SDS011;6427;49.754;6.106;2023-04-03T16:36:28;1.23;;;0.90;;
12725;SDS011;6427;49.754;6.106;2023-04-03T16:38:56;2.57;;;0.90;;
12725;SDS011;6427;49.754;6.106;2023-04-03T16:41:23;1.70;;;0.90;;
12725;SDS011;6427;49.754;6.106;2023-04-03T16:43:51;2.83;;;0.90;;